Backi Monostor — YT2181 — position and weather

sailwx.info

Track history (hours):
 
Tides and Currents Weather Stations Pressure Air Temp Water Temp Dewpoint Dewpoint Depression Visibility Wind Speed Wind Dir Waves Ship Positions

Backi Monostor

Last reported at 2017-Nov-16 12:29 UTC. Time now 2017-Nov-19 08:59 UTC.
Position N 45°40' E 020°06'.

Length 70 m; draft 2.2 m.

Type: Cargo ship. MMSI: 279202181.

Date/timePositionNaut miles runAvg speedWind from/ knotsBaromVisibWave heightAir tempDewpointWater temp
2017-Nov-16 12:29N 45°40' E 020°06'1 2.4
2017-Nov-16 11:54N 45°39' E 020°07'1 3.1
2017-Nov-16 11:29N 45°38' E 020°06'2 3.1
2017-Nov-16 10:58N 45°37' E 020°04'1 2.0
2017-Nov-16 10:28N 45°36' E 020°04'1 2.5
2017-Nov-16 10:00N 45°36' E 020°06'2 0.1
2017-Nov-15 15:49N 45°35' E 020°08'2 1.6
2017-Nov-15 14:52N 45°34' E 020°06'1 2.9
2017-Nov-15 14:30N 45°33' E 020°06'1 2.9
2017-Nov-15 14:00N 45°32' E 020°07'2 3.2
2017-Nov-15 13:20N 45°30' E 020°08'1 2.4
2017-Nov-15 12:48N 45°29' E 020°10'1 3.1
2017-Nov-15 12:27N 45°28' E 020°11'2 3.3
2017-Nov-15 11:54N 45°27' E 020°13'1 2.7
2017-Nov-15 11:29N 45°26' E 020°13'2 3.1
2017-Nov-15 10:59N 45°24' E 020°13'3 3.0
2017-Nov-15 10:05N 45°22' E 020°13'0 2.6
2017-Nov-15 09:54N 45°22' E 020°14'2 3.1
2017-Nov-15 09:24N 45°21' E 020°16'1 2.3
2017-Nov-15 08:59N 45°20' E 020°15'6 2.6
2017-Nov-15 06:42N 45°14' E 020°18'1 3.1
2017-Nov-15 06:30N 45°14' E 020°19'1 2.8
2017-Nov-15 06:00N 45°12' E 020°19'0 0.0
2017-Nov-15 05:30N 45°12' E 020°19'0 0.0
2017-Nov-15 05:00N 45°12' E 020°19'0 0.0
2017-Nov-15 04:31N 45°12' E 020°19'0 0.0
2017-Nov-15 04:01N 45°12' E 020°19'0 0.0
2017-Nov-15 03:30N 45°12' E 020°19'0 0.0
2017-Nov-15 03:01N 45°12' E 020°19'0 0.0
2017-Nov-15 02:31N 45°12' E 020°19'0 0.0
2017-Nov-15 02:00N 45°12' E 020°19'0 0.0
2017-Nov-15 01:31N 45°12' E 020°19'0 0.0
2017-Nov-15 01:01N 45°12' E 020°19'0 0.0
2017-Nov-15 00:31N 45°12' E 020°19'0 0.0
2017-Nov-15 00:01N 45°12' E 020°19'0 0.0
2017-Nov-14 23:31N 45°12' E 020°19'0 0.0
2017-Nov-14 23:00N 45°12' E 020°19'0 0.0
2017-Nov-14 22:31N 45°12' E 020°19'0 0.0
2017-Nov-14 22:01N 45°12' E 020°19'0 0.0
2017-Nov-14 21:31N 45°12' E 020°19'0 0.0
2017-Nov-14 21:01N 45°12' E 020°19'0 0.0
2017-Nov-14 20:31N 45°12' E 020°19'0 0.6
2017-Nov-14 20:01N 45°12' E 020°19'1 1.5
2017-Nov-14 19:30N 45°11' E 020°19'2 2.7
2017-Nov-14 18:56N 45°10' E 020°17'1 2.7
2017-Nov-14 18:30N 45°09' E 020°17'1 2.4
2017-Nov-14 18:00N 45°08' E 020°17'1 1.7
2017-Nov-14 17:30N 45°07' E 020°17'1 1.5
2017-Nov-14 17:00N 45°06' E 020°18'1 1.8
2017-Nov-14 16:30N 45°06' E 020°18'1 1.6
2017-Nov-14 15:59N 45°05' E 020°19'1 2.2
2017-Nov-14 15:22N 45°04' E 020°20'1 2.3
2017-Nov-14 15:00N 45°03' E 020°21'1 2.5
2017-Nov-14 14:30N 45°02' E 020°22'1 2.3
2017-Nov-14 14:00N 45°01' E 020°22'1 2.3
2017-Nov-14 13:31N 45°00' E 020°21'1 2.4
2017-Nov-14 13:01N 44°60' E 020°19'1 2.6
2017-Nov-14 12:31N 44°59' E 020°18'1 2.6
2017-Nov-14 12:01N 44°58' E 020°18'1 2.8
2017-Nov-14 11:31N 44°56' E 020°18'1 2.6
2017-Nov-14 11:00N 44°55' E 020°19'1 2.5
2017-Nov-14 10:30N 44°54' E 020°20'1 2.1
2017-Nov-14 10:00N 44°53' E 020°21'1 2.2
2017-Nov-14 09:31N 44°53' E 020°22'1 2.3
2017-Nov-14 09:01N 44°52' E 020°23'1 2.3
2017-Nov-14 08:31N 44°51' E 020°25'1 2.5
2017-Nov-14 08:01N 44°51' E 020°26'1 2.3
2017-Nov-14 07:30N 44°50' E 020°28'1 2.6
2017-Nov-14 07:00N 44°50' E 020°29'1 2.2
2017-Nov-14 06:31N 44°50' E 020°31'0 0.0
2017-Nov-14 06:01N 44°50' E 020°31'0 0.0
2017-Nov-14 05:31N 44°50' E 020°31'0 0.0
2017-Nov-14 05:01N 44°50' E 020°31'0 0.0
2017-Nov-14 04:30N 44°50' E 020°31'0 0.0
2017-Nov-14 04:01N 44°50' E 020°31'0 0.0
2017-Nov-14 03:30N 44°50' E 020°31'0 0.0
2017-Nov-14 03:01N 44°50' E 020°31'0 0.0
2017-Nov-14 02:31N 44°50' E 020°31'0 0.0
2017-Nov-14 02:01N 44°50' E 020°31'0 0.0
2017-Nov-14 01:31N 44°50' E 020°31'0 0.0
2017-Nov-14 01:00N 44°50' E 020°31'0 0.0
2017-Nov-14 00:31N 44°50' E 020°31'0 0.0
2017-Nov-14 00:01N 44°50' E 020°31'0 0.0
2017-Nov-13 23:31N 44°50' E 020°31'0 0.0
2017-Nov-13 23:01N 44°50' E 020°31'0 0.0
2017-Nov-13 22:31N 44°50' E 020°31'0 0.0
2017-Nov-13 22:01N 44°50' E 020°31'20 0.9
2017-Nov-12 23:41N 44°40' E 020°55'0 0.0
2017-Nov-12 23:29N 44°40' E 020°55'0 0.0
2017-Nov-12 22:16N 44°40' E 020°55'0 0.0
2017-Nov-12 21:55N 44°40' E 020°55'0 0.0
2017-Nov-12 21:30N 44°40' E 020°55'0 0.0
2017-Nov-12 20:42N 44°40' E 020°55'0 0.0
2017-Nov-12 20:29N 44°40' E 020°55'0 0.0
2017-Nov-12 20:00N 44°40' E 020°55'0 0.0
2017-Nov-12 18:27N 44°40' E 020°55'0 0.0
2017-Nov-12 17:49N 44°40' E 020°55'0 0.0
2017-Nov-12 17:28N 44°40' E 020°55'0 0.0
2017-Nov-12 16:56N 44°40' E 020°55'0 0.0
2017-Nov-12 16:30N 44°40' E 020°55'0 0.0
2017-Nov-12 16:01N 44°40' E 020°55'0 0.0
2017-Nov-12 15:30N 44°40' E 020°55'0 0.0
2017-Nov-12 15:01N 44°40' E 020°55'0 0.0
2017-Nov-12 14:31N 44°40' E 020°55'0 0.0
2017-Nov-12 14:01N 44°40' E 020°55'0 0.0
2017-Nov-12 13:03N 44°40' E 020°55'0 0.0
2017-Nov-12 13:00N 44°40' E 020°55'0 0.0
2017-Nov-12 12:30N 44°40' E 020°55'0 0.0
2017-Nov-12 12:00N 44°40' E 020°55'0 0.0
2017-Nov-12 11:30N 44°40' E 020°55'0 0.0
2017-Nov-12 11:00N 44°40' E 020°55'0 0.0
2017-Nov-12 10:30N 44°40' E 020°55'0 0.0
2017-Nov-12 10:00N 44°40' E 020°55'0 0.0
2017-Nov-12 09:31N 44°40' E 020°55'0 0.0
2017-Nov-12 09:00N 44°40' E 020°55'0 0.0
2017-Nov-12 08:31N 44°40' E 020°55'0 0.0
2017-Nov-12 08:00N 44°40' E 020°55'0 0.0
2017-Nov-12 07:30N 44°40' E 020°55'0 0.0
2017-Nov-12 07:00N 44°40' E 020°55'0 0.0
2017-Nov-12 06:31N 44°40' E 020°55'0 0.0
2017-Nov-12 06:00N 44°40' E 020°55'0 0.0
2017-Nov-12 05:30N 44°40' E 020°55'0 0.0
2017-Nov-12 05:01N 44°40' E 020°55'0 0.0
2017-Nov-12 04:30N 44°40' E 020°55'0 0.0
2017-Nov-12 04:00N 44°40' E 020°55'0 0.0
2017-Nov-12 01:54N 44°40' E 020°55'0 0.0
2017-Nov-12 01:28N 44°40' E 020°55'0 0.0
2017-Nov-12 01:00N 44°40' E 020°55'0 0.0
2017-Nov-11 23:21N 44°40' E 020°55'0 0.0
2017-Nov-11 23:01N 44°40' E 020°55'0 0.0
2017-Nov-11 22:30N 44°40' E 020°55'0 0.0
2017-Nov-11 22:01N 44°40' E 020°55'0 0.0
2017-Nov-11 21:30N 44°40' E 020°55'0 0.0
2017-Nov-11 21:01N 44°40' E 020°55'0 0.0
2017-Nov-11 20:31N 44°40' E 020°55'0 0.0
2017-Nov-11 20:00N 44°40' E 020°55'0 0.0
2017-Nov-11 19:30N 44°40' E 020°55'0 0.1
2017-Nov-11 19:00N 44°40' E 020°55'0 0.0
2017-Nov-11 18:31N 44°40' E 020°55'0 0.0
2017-Nov-11 18:01N 44°40' E 020°55'0 0.0
2017-Nov-11 17:31N 44°40' E 020°55'0 0.0
2017-Nov-11 17:00N 44°40' E 020°55'0 0.0
2017-Nov-11 16:30N 44°40' E 020°55'0 0.0
2017-Nov-11 16:01N 44°40' E 020°55'0 0.0
2017-Nov-11 15:30N 44°40' E 020°55'0 0.0
2017-Nov-11 15:00N 44°40' E 020°55'0 0.0
2017-Nov-11 14:30N 44°40' E 020°55'0 0.0
2017-Nov-11 14:00N 44°40' E 020°55'0 0.0
2017-Nov-11 13:30N 44°40' E 020°55'0 0.0
2017-Nov-11 13:00N 44°40' E 020°55'0 0.0
2017-Nov-11 12:30N 44°40' E 020°55'0 0.0
2017-Nov-10 22:24N 44°40' E 020°55'2 2.7
2017-Nov-10 21:42N 44°41' E 020°57'1 3.0
2017-Nov-10 21:30N 44°42' E 020°57'1 2.8
2017-Nov-10 21:00N 44°43' E 020°59'1 3.0
2017-Nov-10 20:31N 44°43' E 021°01'1 2.9
2017-Nov-10 20:00N 44°43' E 021°03'1 2.9
2017-Nov-10 19:31N 44°43' E 021°05'1 3.0
2017-Nov-10 19:00N 44°44' E 021°07'1 2.8
2017-Nov-10 18:31N 44°44' E 021°09'1 2.8
2017-Nov-10 18:01N 44°45' E 021°10'0 0.3
2017-Nov-10 17:31N 44°46' E 021°10'0 0.0
2017-Nov-10 17:00N 44°46' E 021°10'0 0.0
2017-Nov-10 16:30N 44°46' E 021°10'0 0.0
2017-Nov-10 16:00N 44°46' E 021°10'0 0.0
2017-Nov-10 15:30N 44°46' E 021°10'0 0.0
2017-Nov-10 15:01N 44°46' E 021°10'0 0.0
2017-Nov-10 14:31N 44°46' E 021°10'1 2.5
2017-Nov-10 14:01N 44°46' E 021°12'2 3.4
2017-Nov-10 13:30N 44°47' E 021°14'2 3.6
2017-Nov-10 13:00N 44°48' E 021°16'5 3.1
2017-Nov-10 11:24N 44°48' E 021°23'1 3.2
2017-Nov-10 11:00N 44°47' E 021°24'2 3.4
2017-Nov-10 10:30N 44°47' E 021°27'2 3.5
2017-Nov-10 10:01N 44°46' E 021°29'1 1.7
2017-Nov-10 09:31N 44°46' E 021°30'0 0.0
2017-Nov-10 09:01N 44°46' E 021°30'0 0.0
2017-Nov-10 08:18N 44°46' E 021°30'0 0.0
2017-Nov-10 07:54N 44°46' E 021°30'1 1.7
2017-Nov-10 07:25N 44°46' E 021°31'0 0.0
2017-Nov-10 06:57N 44°46' E 021°31'0 0.0
2017-Nov-10 06:30N 44°46' E 021°31'0 0.0
2017-Nov-10 05:57N 44°46' E 021°31'0 0.0
2017-Nov-10 05:30N 44°46' E 021°31'0 0.0
2017-Nov-10 04:58N 44°46' E 021°31'0 0.0
2017-Nov-10 04:30N 44°46' E 021°31'0 0.0
2017-Nov-10 03:58N 44°46' E 021°31'0 0.0
2017-Nov-10 03:30N 44°46' E 021°31'0 0.0
2017-Nov-10 03:01N 44°46' E 021°31'0 0.0
2017-Nov-10 02:31N 44°46' E 021°31'0 0.0
2017-Nov-10 01:58N 44°46' E 021°31'0 0.0
2017-Nov-10 01:01N 44°46' E 021°31'0 0.1
2017-Nov-10 00:57N 44°46' E 021°31'0 0.0
2017-Nov-09 19:16N 44°46' E 021°31'0 0.0
2017-Nov-09 19:01N 44°46' E 021°31'0 0.0
2017-Nov-09 18:31N 44°46' E 021°31'0 0.0
2017-Nov-09 18:00N 44°46' E 021°31'0 0.0
2017-Nov-09 17:30N 44°46' E 021°31'0 0.0
2017-Nov-09 17:00N 44°46' E 021°31'2 3.1
2017-Nov-09 16:31N 44°46' E 021°33'2 3.3
2017-Nov-09 16:01N 44°45' E 021°35'2 3.6
2017-Nov-09 15:30N 44°44' E 021°37'2 3.6
2017-Nov-09 15:01N 44°42' E 021°38'2 3.7
2017-Nov-09 14:31N 44°41' E 021°40'2 3.6
2017-Nov-09 14:01N 44°40' E 021°42'  
Track history (hours):
 
Tides and Currents Weather Stations Pressure Air Temp Water Temp Dewpoint Dewpoint Depression Visibility Wind Speed Wind Dir Waves Ship Positions

Backi Monostor

Last reported at 2017-Nov-16 12:29 UTC. Time now 2017-Nov-19 08:59 UTC.
Position N 45°40' E 020°06'.

Length 70 m; draft 2.2 m.

Type: Cargo ship. MMSI: 279202181.

Date/timePositionNaut miles runAvg speedWind from/ knotsBaromVisibWave heightAir tempDewpointWater temp
2017-Nov-16 12:29N 45°40' E 020°06'1 2.4
2017-Nov-16 11:54N 45°39' E 020°07'1 3.1
2017-Nov-16 11:29N 45°38' E 020°06'2 3.1
2017-Nov-16 10:58N 45°37' E 020°04'1 2.0
2017-Nov-16 10:28N 45°36' E 020°04'1 2.5
2017-Nov-16 10:00N 45°36' E 020°06'2 0.1
2017-Nov-15 15:49N 45°35' E 020°08'2 1.6
2017-Nov-15 14:52N 45°34' E 020°06'1 2.9
2017-Nov-15 14:30N 45°33' E 020°06'1 2.9
2017-Nov-15 14:00N 45°32' E 020°07'2 3.2
2017-Nov-15 13:20N 45°30' E 020°08'1 2.4
2017-Nov-15 12:48N 45°29' E 020°10'1 3.1
2017-Nov-15 12:27N 45°28' E 020°11'2 3.3
2017-Nov-15 11:54N 45°27' E 020°13'1 2.7
2017-Nov-15 11:29N 45°26' E 020°13'2 3.1
2017-Nov-15 10:59N 45°24' E 020°13'3 3.0
2017-Nov-15 10:05N 45°22' E 020°13'0 2.6
2017-Nov-15 09:54N 45°22' E 020°14'2 3.1
2017-Nov-15 09:24N 45°21' E 020°16'1 2.3
2017-Nov-15 08:59N 45°20' E 020°15'6 2.6
2017-Nov-15 06:42N 45°14' E 020°18'1 3.1
2017-Nov-15 06:30N 45°14' E 020°19'1 2.8
2017-Nov-15 06:00N 45°12' E 020°19'0 0.0
2017-Nov-15 05:30N 45°12' E 020°19'0 0.0
2017-Nov-15 05:00N 45°12' E 020°19'0 0.0
2017-Nov-15 04:31N 45°12' E 020°19'0 0.0
2017-Nov-15 04:01N 45°12' E 020°19'0 0.0
2017-Nov-15 03:30N 45°12' E 020°19'0 0.0
2017-Nov-15 03:01N 45°12' E 020°19'0 0.0
2017-Nov-15 02:31N 45°12' E 020°19'0 0.0
2017-Nov-15 02:00N 45°12' E 020°19'0 0.0
2017-Nov-15 01:31N 45°12' E 020°19'0 0.0
2017-Nov-15 01:01N 45°12' E 020°19'0 0.0
2017-Nov-15 00:31N 45°12' E 020°19'0 0.0
2017-Nov-15 00:01N 45°12' E 020°19'0 0.0
2017-Nov-14 23:31N 45°12' E 020°19'0 0.0
2017-Nov-14 23:00N 45°12' E 020°19'0 0.0
2017-Nov-14 22:31N 45°12' E 020°19'0 0.0
2017-Nov-14 22:01N 45°12' E 020°19'0 0.0
2017-Nov-14 21:31N 45°12' E 020°19'0 0.0
2017-Nov-14 21:01N 45°12' E 020°19'0 0.0
2017-Nov-14 20:31N 45°12' E 020°19'0 0.6
2017-Nov-14 20:01N 45°12' E 020°19'1 1.5
2017-Nov-14 19:30N 45°11' E 020°19'2 2.7
2017-Nov-14 18:56N 45°10' E 020°17'1 2.7
2017-Nov-14 18:30N 45°09' E 020°17'1 2.4
2017-Nov-14 18:00N 45°08' E 020°17'1 1.7
2017-Nov-14 17:30N 45°07' E 020°17'1 1.5
2017-Nov-14 17:00N 45°06' E 020°18'1 1.8
2017-Nov-14 16:30N 45°06' E 020°18'1 1.6
2017-Nov-14 15:59N 45°05' E 020°19'1 2.2
2017-Nov-14 15:22N 45°04' E 020°20'1 2.3
2017-Nov-14 15:00N 45°03' E 020°21'1 2.5
2017-Nov-14 14:30N 45°02' E 020°22'1 2.3
2017-Nov-14 14:00N 45°01' E 020°22'1 2.3
2017-Nov-14 13:31N 45°00' E 020°21'1 2.4
2017-Nov-14 13:01N 44°60' E 020°19'1 2.6
2017-Nov-14 12:31N 44°59' E 020°18'1 2.6
2017-Nov-14 12:01N 44°58' E 020°18'1 2.8
2017-Nov-14 11:31N 44°56' E 020°18'1 2.6
2017-Nov-14 11:00N 44°55' E 020°19'1 2.5
2017-Nov-14 10:30N 44°54' E 020°20'1 2.1
2017-Nov-14 10:00N 44°53' E 020°21'1 2.2
2017-Nov-14 09:31N 44°53' E 020°22'1 2.3
2017-Nov-14 09:01N 44°52' E 020°23'1 2.3
2017-Nov-14 08:31N 44°51' E 020°25'1 2.5
2017-Nov-14 08:01N 44°51' E 020°26'1 2.3
2017-Nov-14 07:30N 44°50' E 020°28'1 2.6
2017-Nov-14 07:00N 44°50' E 020°29'1 2.2
2017-Nov-14 06:31N 44°50' E 020°31'0 0.0
2017-Nov-14 06:01N 44°50' E 020°31'0 0.0
2017-Nov-14 05:31N 44°50' E 020°31'0 0.0
2017-Nov-14 05:01N 44°50' E 020°31'0 0.0
2017-Nov-14 04:30N 44°50' E 020°31'0 0.0
2017-Nov-14 04:01N 44°50' E 020°31'0 0.0
2017-Nov-14 03:30N 44°50' E 020°31'0 0.0
2017-Nov-14 03:01N 44°50' E 020°31'0 0.0
2017-Nov-14 02:31N 44°50' E 020°31'0 0.0
2017-Nov-14 02:01N 44°50' E 020°31'0 0.0
2017-Nov-14 01:31N 44°50' E 020°31'0 0.0
2017-Nov-14 01:00N 44°50' E 020°31'0 0.0
2017-Nov-14 00:31N 44°50' E 020°31'0 0.0
2017-Nov-14 00:01N 44°50' E 020°31'0 0.0
2017-Nov-13 23:31N 44°50' E 020°31'0 0.0
2017-Nov-13 23:01N 44°50' E 020°31'0 0.0
2017-Nov-13 22:31N 44°50' E 020°31'0 0.0
2017-Nov-13 22:01N 44°50' E 020°31'20 0.9
2017-Nov-12 23:41N 44°40' E 020°55'0 0.0
2017-Nov-12 23:29N 44°40' E 020°55'0 0.0
2017-Nov-12 22:16N 44°40' E 020°55'0 0.0
2017-Nov-12 21:55N 44°40' E 020°55'0 0.0
2017-Nov-12 21:30N 44°40' E 020°55'0 0.0
2017-Nov-12 20:42N 44°40' E 020°55'0 0.0
2017-Nov-12 20:29N 44°40' E 020°55'0 0.0
2017-Nov-12 20:00N 44°40' E 020°55'0 0.0
2017-Nov-12 18:27N 44°40' E 020°55'0 0.0
2017-Nov-12 17:49N 44°40' E 020°55'0 0.0
2017-Nov-12 17:28N 44°40' E 020°55'0 0.0
2017-Nov-12 16:56N 44°40' E 020°55'0 0.0
2017-Nov-12 16:30N 44°40' E 020°55'0 0.0
2017-Nov-12 16:01N 44°40' E 020°55'0 0.0
2017-Nov-12 15:30N 44°40' E 020°55'0 0.0
2017-Nov-12 15:01N 44°40' E 020°55'0 0.0
2017-Nov-12 14:31N 44°40' E 020°55'0 0.0
2017-Nov-12 14:01N 44°40' E 020°55'0 0.0
2017-Nov-12 13:03N 44°40' E 020°55'0 0.0
2017-Nov-12 13:00N 44°40' E 020°55'0 0.0
2017-Nov-12 12:30N 44°40' E 020°55'0 0.0
2017-Nov-12 12:00N 44°40' E 020°55'0 0.0
2017-Nov-12 11:30N 44°40' E 020°55'0 0.0
2017-Nov-12 11:00N 44°40' E 020°55'0 0.0
2017-Nov-12 10:30N 44°40' E 020°55'0 0.0
2017-Nov-12 10:00N 44°40' E 020°55'0 0.0
2017-Nov-12 09:31N 44°40' E 020°55'0 0.0
2017-Nov-12 09:00N 44°40' E 020°55'0 0.0
2017-Nov-12 08:31N 44°40' E 020°55'0 0.0
2017-Nov-12 08:00N 44°40' E 020°55'0 0.0
2017-Nov-12 07:30N 44°40' E 020°55'0 0.0
2017-Nov-12 07:00N 44°40' E 020°55'0 0.0
2017-Nov-12 06:31N 44°40' E 020°55'0 0.0
2017-Nov-12 06:00N 44°40' E 020°55'0 0.0
2017-Nov-12 05:30N 44°40' E 020°55'0 0.0
2017-Nov-12 05:01N 44°40' E 020°55'0 0.0
2017-Nov-12 04:30N 44°40' E 020°55'0 0.0
2017-Nov-12 04:00N 44°40' E 020°55'0 0.0
2017-Nov-12 01:54N 44°40' E 020°55'0 0.0
2017-Nov-12 01:28N 44°40' E 020°55'0 0.0
2017-Nov-12 01:00N 44°40' E 020°55'0 0.0
2017-Nov-11 23:21N 44°40' E 020°55'0 0.0
2017-Nov-11 23:01N 44°40' E 020°55'0 0.0
2017-Nov-11 22:30N 44°40' E 020°55'0 0.0
2017-Nov-11 22:01N 44°40' E 020°55'0 0.0
2017-Nov-11 21:30N 44°40' E 020°55'0 0.0
2017-Nov-11 21:01N 44°40' E 020°55'0 0.0
2017-Nov-11 20:31N 44°40' E 020°55'0 0.0
2017-Nov-11 20:00N 44°40' E 020°55'0 0.0
2017-Nov-11 19:30N 44°40' E 020°55'0 0.1
2017-Nov-11 19:00N 44°40' E 020°55'0 0.0
2017-Nov-11 18:31N 44°40' E 020°55'0 0.0
2017-Nov-11 18:01N 44°40' E 020°55'0 0.0
2017-Nov-11 17:31N 44°40' E 020°55'0 0.0
2017-Nov-11 17:00N 44°40' E 020°55'0 0.0
2017-Nov-11 16:30N 44°40' E 020°55'0 0.0
2017-Nov-11 16:01N 44°40' E 020°55'0 0.0
2017-Nov-11 15:30N 44°40' E 020°55'0 0.0
2017-Nov-11 15:00N 44°40' E 020°55'0 0.0
2017-Nov-11 14:30N 44°40' E 020°55'0 0.0
2017-Nov-11 14:00N 44°40' E 020°55'0 0.0
2017-Nov-11 13:30N 44°40' E 020°55'0 0.0
2017-Nov-11 13:00N 44°40' E 020°55'0 0.0
2017-Nov-11 12:30N 44°40' E 020°55'0 0.0
2017-Nov-10 22:24N 44°40' E 020°55'2 2.7
2017-Nov-10 21:42N 44°41' E 020°57'1 3.0
2017-Nov-10 21:30N 44°42' E 020°57'1 2.8
2017-Nov-10 21:00N 44°43' E 020°59'1 3.0
2017-Nov-10 20:31N 44°43' E 021°01'1 2.9
2017-Nov-10 20:00N 44°43' E 021°03'1 2.9
2017-Nov-10 19:31N 44°43' E 021°05'1 3.0
2017-Nov-10 19:00N 44°44' E 021°07'1 2.8
2017-Nov-10 18:31N 44°44' E 021°09'1 2.8
2017-Nov-10 18:01N 44°45' E 021°10'0 0.3
2017-Nov-10 17:31N 44°46' E 021°10'0 0.0
2017-Nov-10 17:00N 44°46' E 021°10'0 0.0
2017-Nov-10 16:30N 44°46' E 021°10'0 0.0
2017-Nov-10 16:00N 44°46' E 021°10'0 0.0
2017-Nov-10 15:30N 44°46' E 021°10'0 0.0
2017-Nov-10 15:01N 44°46' E 021°10'0 0.0
2017-Nov-10 14:31N 44°46' E 021°10'1 2.5
2017-Nov-10 14:01N 44°46' E 021°12'2 3.4
2017-Nov-10 13:30N 44°47' E 021°14'2 3.6
2017-Nov-10 13:00N 44°48' E 021°16'5 3.1
2017-Nov-10 11:24N 44°48' E 021°23'1 3.2
2017-Nov-10 11:00N 44°47' E 021°24'2 3.4
2017-Nov-10 10:30N 44°47' E 021°27'2 3.5
2017-Nov-10 10:01N 44°46' E 021°29'1 1.7
2017-Nov-10 09:31N 44°46' E 021°30'0 0.0
2017-Nov-10 09:01N 44°46' E 021°30'0 0.0
2017-Nov-10 08:18N 44°46' E 021°30'0 0.0
2017-Nov-10 07:54N 44°46' E 021°30'1 1.7
2017-Nov-10 07:25N 44°46' E 021°31'0 0.0
2017-Nov-10 06:57N 44°46' E 021°31'0 0.0
2017-Nov-10 06:30N 44°46' E 021°31'0 0.0
2017-Nov-10 05:57N 44°46' E 021°31'0 0.0
2017-Nov-10 05:30N 44°46' E 021°31'0 0.0
2017-Nov-10 04:58N 44°46' E 021°31'0 0.0
2017-Nov-10 04:30N 44°46' E 021°31'0 0.0
2017-Nov-10 03:58N 44°46' E 021°31'0 0.0
2017-Nov-10 03:30N 44°46' E 021°31'0 0.0
2017-Nov-10 03:01N 44°46' E 021°31'0 0.0
2017-Nov-10 02:31N 44°46' E 021°31'0 0.0
2017-Nov-10 01:58N 44°46' E 021°31'0 0.0
2017-Nov-10 01:01N 44°46' E 021°31'0 0.1
2017-Nov-10 00:57N 44°46' E 021°31'0 0.0
2017-Nov-09 19:16N 44°46' E 021°31'0 0.0
2017-Nov-09 19:01N 44°46' E 021°31'0 0.0
2017-Nov-09 18:31N 44°46' E 021°31'0 0.0
2017-Nov-09 18:00N 44°46' E 021°31'0 0.0
2017-Nov-09 17:30N 44°46' E 021°31'0 0.0
2017-Nov-09 17:00N 44°46' E 021°31'2 3.1
2017-Nov-09 16:31N 44°46' E 021°33'2 3.3
2017-Nov-09 16:01N 44°45' E 021°35'2 3.6
2017-Nov-09 15:30N 44°44' E 021°37'2 3.6
2017-Nov-09 15:01N 44°42' E 021°38'2 3.7
2017-Nov-09 14:31N 44°41' E 021°40'2 3.6
2017-Nov-09 14:01N 44°40' E 021°42'  

Dump ship's entire track history